Victory, Vermont
Current Conditions -  °F | °C
As of 9:15 AM on Thursday 23 Oct 2014 (Local Time) from KCDA Reporting Station
Overcast Overcast  
Wind Chill: 41°   Ceiling: 4500
Heat Index: 47°   Visibility: 10mi
Dew Point: 39°   Wind: 14mph
Humidity: 74%   Direction: 320°NW
Pressure: 29.92"   Gusts: 22mph
Location:  44.5627°N, 71.7775°W
Report Text: KCDA 231315Z AUTO 32012G19KT 10SM SCT024 BKN045 OVC060 08/04 A2992 RMK AO2 T00810038
Loading
Personal Weather Stations






























Interactive Weather Map
Tropical Storm Tracking
New forecast layout! Learn more

10-Day Weather Forecast

Advertisements
Track Severe Weather on mobile